createdAt,value
2023-02-22T00:01:07.771Z,101190.91
2023-02-22T00:03:36.786Z,101187.53
2023-02-22T00:06:06.455Z,101189.22
2023-02-22T00:08:37.051Z,101195.50
2023-02-22T00:11:08.968Z,101188.63
2023-02-22T00:13:38.678Z,101196.44
2023-02-22T00:16:07.549Z,101191.28
2023-02-22T00:18:36.324Z,101184.59
2023-02-22T00:21:10.808Z,101184.59
2023-02-22T00:23:46.683Z,101178.66
2023-02-22T00:26:19.228Z,101182.16
2023-02-22T00:28:51.854Z,101180.47
2023-02-22T00:31:21.099Z,101177.31
2023-02-22T00:33:51.719Z,101178.03
2023-02-22T00:36:20.254Z,101182.50
2023-02-22T00:38:49.056Z,101187.00
2023-02-22T00:41:17.819Z,101182.63
2023-02-22T00:43:49.347Z,101179.97
2023-02-22T00:46:17.944Z,101175.72
2023-02-22T00:48:47.951Z,101173.19
2023-02-22T00:51:16.649Z,101165.41
2023-02-22T00:53:45.636Z,101170.53
2023-02-22T00:56:14.200Z,101172.44
2023-02-22T00:58:42.991Z,101175.09
2023-02-22T01:01:11.599Z,101171.00
2023-02-22T01:03:41.468Z,101179.59
2023-02-22T01:06:10.353Z,101173.66
2023-02-22T01:08:39.229Z,101182.34
2023-02-22T01:11:07.637Z,101176.19
2023-02-22T01:13:36.641Z,101172.66
2023-02-22T01:16:08.480Z,101166.13
2023-02-22T01:18:37.587Z,101171.94
2023-02-22T01:21:06.616Z,101170.25
2023-02-22T01:23:37.927Z,101167.09
2023-02-22T01:26:06.469Z,101165.03
2023-02-22T01:28:35.421Z,101161.75
2023-02-22T01:31:04.271Z,101160.81
2023-02-22T01:33:34.279Z,101163.47
2023-02-22T01:36:03.916Z,101152.94
2023-02-22T01:38:32.814Z,101156.44
2023-02-22T01:41:01.818Z,101160.94
2023-02-22T01:43:32.581Z,101152.09
2023-02-22T01:46:27.294Z,101151.34
2023-02-22T01:49:02.458Z,101141.06
2023-02-22T01:51:38.064Z,101144.34
2023-02-22T01:54:26.577Z,101144.47
2023-02-22T01:57:20.791Z,101128.88
2023-02-22T01:59:54.319Z,101140.97
2023-02-22T02:02:25.350Z,101140.97
2023-02-22T02:04:56.760Z,101133.09
2023-02-22T02:07:25.300Z,101128.97
2023-02-22T02:10:00.290Z,101132.25
2023-02-22T02:12:31.417Z,101127.88
2023-02-22T02:15:25.455Z,101123.44
2023-02-22T02:17:55.248Z,101127.88
2023-02-22T02:20:52.177Z,101131.53
2023-02-22T02:24:02.542Z,101118.22
2023-02-22T02:26:59.028Z,101120.16
2023-02-22T02:29:44.888Z,101106.34
2023-02-22T02:32:41.433Z,101110.47
2023-02-22T02:35:38.609Z,101099.22
2023-02-22T02:38:20.843Z,101108.78
2023-02-22T02:41:23.252Z,101107.19
2023-02-22T02:44:16.208Z,101092.56
2023-02-22T02:46:57.848Z,101102.75
2023-02-22T02:49:46.935Z,101102.75
2023-02-22T02:52:16.521Z,101098.28
2023-02-22T02:54:46.383Z,101095.72
2023-02-22T02:57:16.061Z,101088.72
2023-02-22T02:59:44.902Z,101085.31
2023-02-22T03:02:51.971Z,101083.50
2023-02-22T03:05:50.170Z,101081.66
2023-02-22T03:08:43.854Z,101086.97
2023-02-22T03:11:31.650Z,101077.34
2023-02-22T03:14:42.893Z,101068.75
2023-02-22T03:17:30.754Z,101072.13
2023-02-22T03:20:05.251Z,101067.13
2023-02-22T03:22:44.251Z,101076.59
2023-02-22T03:25:22.773Z,101074.91
2023-02-22T03:28:02.572Z,101077.56
2023-02-22T03:30:51.170Z,101072.25
2023-02-22T03:34:01.683Z,101077.66
2023-02-22T03:36:44.093Z,101072.34
2023-02-22T03:39:17.893Z,101074.16
2023-02-22T03:41:51.729Z,101072.44
2023-02-22T03:44:26.163Z,101080.31
2023-02-22T03:46:56.931Z,101072.44
2023-02-22T03:49:51.815Z,101076.94
2023-02-22T03:52:23.633Z,101074.28
2023-02-22T03:54:54.091Z,101079.59
2023-02-22T03:57:32.933Z,101078.75
2023-02-22T04:00:10.970Z,101077.03
2023-02-22T04:02:42.400Z,101080.56
2023-02-22T04:05:15.997Z,101074.72
2023-02-22T04:07:45.251Z,101086.81
2023-02-22T04:10:16.292Z,101082.50
2023-02-22T04:12:45.570Z,101081.63
2023-02-22T04:15:20.292Z,101078.97
2023-02-22T04:17:52.692Z,101080.88
2023-02-22T04:20:25.755Z,101082.59
2023-02-22T04:23:00.590Z,101077.28
2023-02-22T04:25:30.538Z,101077.84
2023-02-22T04:27:59.303Z,101087.19
2023-02-22T04:30:39.910Z,101080.88
2023-02-22T04:33:13.195Z,101084.72
2023-02-22T04:35:42.654Z,101081.97
2023-02-22T04:38:11.760Z,101080.88
2023-02-22T04:40:42.432Z,101077.28
2023-02-22T04:43:11.056Z,101082.88
2023-02-22T04:45:39.942Z,101082.66
2023-02-22T04:48:09.800Z,101083.06
2023-02-22T04:50:39.472Z,101089.00
2023-02-22T04:53:08.107Z,101082.22
2023-02-22T04:55:39.508Z,101083.47
2023-02-22T04:58:09.488Z,101079.88
2023-02-22T05:00:39.576Z,101082.56
2023-02-22T05:03:09.122Z,101078.72
2023-02-22T05:05:37.984Z,101088.13
2023-02-22T05:08:06.650Z,101080.78
2023-02-22T05:10:35.691Z,101085.47
2023-02-22T05:13:04.348Z,101085.97
2023-02-22T05:15:33.203Z,101083.31
2023-02-22T05:18:01.569Z,101085.97
2023-02-22T05:20:34.101Z,101080.03
2023-02-22T05:23:03.204Z,101085.25
2023-02-22T05:25:32.239Z,101088.13
2023-02-22T05:28:07.931Z,101075.31
2023-02-22T05:30:39.945Z,101079.69
2023-02-22T05:33:09.272Z,101082.34
2023-02-22T05:35:38.132Z,101083.28
2023-02-22T05:38:06.650Z,101073.38
2023-02-22T05:40:35.445Z,101088.00
2023-02-22T05:43:03.989Z,101084.50
2023-02-22T05:45:32.847Z,101087.41
2023-02-22T05:48:01.394Z,101081.13
2023-02-22T05:50:30.269Z,101088.47
2023-02-22T05:52:58.823Z,101082.41
2023-02-22T05:55:27.684Z,101082.41
2023-02-22T05:57:56.170Z,101080.97
2023-02-22T06:00:30.415Z,101088.84
2023-02-22T06:03:08.360Z,101068.50
2023-02-22T06:05:37.743Z,101082.91
2023-02-22T06:08:07.126Z,101084.72
2023-02-22T06:10:36.006Z,101082.91
2023-02-22T06:13:05.023Z,101094.50
2023-02-22T06:15:33.989Z,101085.66
2023-02-22T06:18:02.618Z,101084.81
2023-02-22T06:20:31.586Z,101090.34
2023-02-22T06:23:00.142Z,101096.88
2023-02-22T06:25:33.602Z,101106.66
2023-02-22T06:28:02.032Z,101096.28
2023-02-22T06:30:30.973Z,101099.91
2023-02-22T06:32:59.433Z,101105.94
2023-02-22T06:35:28.204Z,101103.06
2023-02-22T06:37:56.797Z,101112.22
2023-02-22T06:40:29.726Z,101107.66
2023-02-22T06:42:58.791Z,101108.94
2023-02-22T06:45:27.827Z,101117.78
2023-02-22T06:47:56.295Z,101123.09
2023-02-22T06:50:29.093Z,101127.66
2023-02-22T06:52:58.103Z,101117.97
2023-02-22T06:55:29.692Z,101126.94
2023-02-22T06:57:58.288Z,101126.09
2023-02-22T07:00:28.203Z,101117.81
2023-02-22T07:02:57.205Z,101129.81
2023-02-22T07:05:26.664Z,101130.78
2023-02-22T07:07:56.372Z,101125.69
2023-02-22T07:10:28.156Z,101136.09
2023-02-22T07:12:56.832Z,101133.44
2023-02-22T07:15:28.116Z,101133.44
2023-02-22T07:17:56.789Z,101132.59
2023-02-22T07:20:27.886Z,101133.66
2023-02-22T07:22:56.461Z,101130.28
2023-02-22T07:25:25.646Z,101137.28
2023-02-22T07:27:54.072Z,101131.25
2023-02-22T07:30:25.669Z,101127.94
2023-02-22T07:32:55.155Z,101122.94
2023-02-22T07:35:50.133Z,101128.03
2023-02-22T07:38:19.608Z,101131.44
2023-02-22T07:40:48.404Z,101119.97
2023-02-22T07:43:25.021Z,101122.72
2023-02-22T07:45:56.999Z,101118.59
2023-02-22T07:48:27.772Z,101121.00
2023-02-22T07:50:56.895Z,101122.72
2023-02-22T07:53:31.018Z,101123.28
2023-02-22T07:56:05.501Z,101113.03
2023-02-22T07:58:34.138Z,101128.78
2023-02-22T08:01:03.085Z,101123.56
2023-02-22T08:03:36.948Z,101128.16
2023-02-22T08:06:07.435Z,101124.66
2023-02-22T08:08:35.841Z,101125.00
2023-02-22T08:11:05.101Z,101124.03
2023-02-22T08:13:33.578Z,101117.88
2023-02-22T08:16:02.339Z,101109.72
2023-02-22T08:18:30.867Z,101121.47
2023-02-22T08:20:59.680Z,101116.28
2023-02-22T08:23:28.248Z,101114.47
2023-02-22T08:26:03.879Z,101110.09
2023-02-22T08:28:32.444Z,101115.44
2023-02-22T08:31:01.351Z,101110.09
2023-02-22T08:33:29.885Z,101111.09
2023-02-22T08:35:58.705Z,101114.59
2023-02-22T08:38:30.406Z,101109.28
2023-02-22T08:40:59.262Z,101106.72
2023-02-22T08:43:29.090Z,101112.78
2023-02-22T08:45:58.076Z,101109.38
2023-02-22T08:48:26.818Z,101102.13
2023-02-22T08:50:56.442Z,101105.16
2023-02-22T08:53:24.885Z,101109.28
2023-02-22T08:55:53.812Z,101112.78
2023-02-22T08:58:22.545Z,101111.94
2023-02-22T09:00:51.387Z,101101.50
2023-02-22T09:03:19.816Z,101100.47
2023-02-22T09:05:48.916Z,101102.38
2023-02-22T09:08:17.720Z,101095.34
2023-02-22T09:10:46.691Z,101102.13
2023-02-22T09:13:15.305Z,101103.94
2023-02-22T09:15:44.133Z,101098.75
2023-02-22T09:18:14.794Z,101097.91
2023-02-22T09:20:43.835Z,101098.75
2023-02-22T09:23:12.534Z,101092.59
2023-02-22T09:25:41.632Z,101096.94
2023-02-22T09:28:10.159Z,101102.13
2023-02-22T09:30:39.023Z,101101.28
2023-02-22T09:33:16.258Z,101090.56
2023-02-22T09:35:50.087Z,101086.44
2023-02-22T09:38:23.204Z,101084.72
2023-02-22T09:41:35.184Z,101081.75
2023-02-22T09:44:48.736Z,101088.13
2023-02-22T09:47:32.741Z,101092.97
2023-02-22T09:50:05.173Z,101088.63
2023-02-22T09:52:40.033Z,101084.91
2023-02-22T09:55:17.879Z,101081.28
2023-02-22T09:57:46.678Z,101085.75
2023-02-22T10:00:24.283Z,101075.09
2023-02-22T10:03:29.040Z,101077.44
2023-02-22T10:06:12.004Z,101080.75
2023-02-22T10:08:40.841Z,101068.75
2023-02-22T10:11:28.865Z,101065.00
2023-02-22T10:14:43.782Z,101067.31
2023-02-22T10:17:45.771Z,101066.50
2023-02-22T10:20:51.913Z,101071.69
2023-02-22T10:24:17.116Z,101055.75
2023-02-22T10:26:47.070Z,101072.53
2023-02-22T10:29:32.914Z,101062.75
2023-02-22T10:32:05.155Z,101068.69
2023-02-22T10:34:48.765Z,101058.06
2023-02-22T10:37:26.834Z,101061.22
2023-02-22T10:40:17.563Z,101049.75
2023-02-22T10:42:47.655Z,101057.75
2023-02-22T10:45:30.178Z,101056.69
2023-02-22T10:48:09.013Z,101053.22
2023-02-22T10:50:41.169Z,101046.59
2023-02-22T10:53:10.315Z,101050.59
2023-02-22T10:56:17.282Z,101037.03
2023-02-22T10:59:07.694Z,101039.44
2023-02-22T11:01:38.761Z,101030.88
2023-02-22T11:04:17.666Z,101008.81
2023-02-22T11:07:10.170Z,101029.78
2023-02-22T11:10:03.524Z,101032.19
2023-02-22T11:12:41.491Z,101017.31
2023-02-22T11:15:19.680Z,101022.75
2023-02-22T11:17:50.580Z,101018.53
2023-02-22T11:20:34.707Z,101008.97
2023-02-22T11:23:04.538Z,101006.88
2023-02-22T11:25:42.624Z,101004.09
2023-02-22T11:28:31.157Z,101001.56
2023-02-22T11:31:15.967Z,100995.53
2023-02-22T11:36:40.880Z,100986.97
2023-02-22T11:39:34.674Z,100984.41
2023-02-22T11:42:27.554Z,100979.31
2023-02-22T11:45:25.306Z,100983.19
2023-02-22T11:47:56.846Z,100965.19
2023-02-22T11:50:52.113Z,100979.81
2023-02-22T11:53:38.065Z,100975.59
2023-02-22T11:56:46.518Z,100971.50
2023-02-22T11:59:36.920Z,100969.78
2023-02-22T12:02:30.881Z,100973.44
2023-02-22T12:05:18.693Z,100966.53
2023-02-22T12:08:19.605Z,100958.69
2023-02-22T12:11:19.237Z,100954.19
2023-02-22T12:14:15.704Z,100952.75
2023-02-22T12:17:14.912Z,100946.56
2023-02-22T12:19:51.354Z,100944.06
2023-02-22T12:22:36.930Z,100935.59
2023-02-22T12:25:16.673Z,100947.94
2023-02-22T12:28:24.556Z,100943.56
2023-02-22T12:31:23.508Z,100940.06
2023-02-22T12:34:29.369Z,100948.16
2023-02-22T12:37:15.113Z,100934.97
2023-02-22T12:39:56.638Z,100935.81
2023-02-22T12:43:13.340Z,100929.78
2023-02-22T12:46:11.082Z,100931.47
2023-02-22T12:49:15.534Z,100937.03
2023-02-22T12:52:21.620Z,100924.00
2023-02-22T12:55:16.103Z,100917.22
2023-02-22T12:57:54.774Z,100922.28
2023-02-22T13:00:37.096Z,100930.16
2023-02-22T13:03:40.590Z,100935.47
2023-02-22T13:06:38.773Z,100926.88
2023-02-22T13:09:28.481Z,100922.53
2023-02-22T13:12:23.732Z,100921.69
2023-02-22T13:15:09.899Z,100898.63
2023-02-22T13:18:04.617Z,100916.00
2023-02-22T13:20:45.591Z,100910.69
2023-02-22T13:23:49.055Z,100916.72
2023-02-22T13:26:33.098Z,100916.00
2023-02-22T13:29:22.504Z,100907.31
2023-02-22T13:32:18.277Z,100917.22
2023-02-22T13:35:16.925Z,100913.72
2023-02-22T13:38:21.544Z,100910.34
2023-02-22T13:41:08.640Z,100890.97
2023-02-22T13:43:53.801Z,100905.03
2023-02-22T13:46:47.198Z,100906.09
2023-02-22T13:50:00.133Z,100906.09
2023-02-22T13:52:31.309Z,100886.03
2023-02-22T13:55:11.353Z,100902.72
2023-02-22T13:57:49.931Z,100896.06
2023-02-22T14:00:25.028Z,100887.97
2023-02-22T14:03:34.433Z,100897.50
2023-02-22T14:06:05.749Z,100899.31
2023-02-22T14:08:34.373Z,100892.34
2023-02-22T14:11:12.952Z,100880.22
2023-02-22T14:14:01.164Z,100883.03
2023-02-22T14:16:31.396Z,100885.81
2023-02-22T14:19:06.954Z,100886.41
2023-02-22T14:21:36.453Z,100883.75
2023-02-22T14:24:15.122Z,100880.38
2023-02-22T14:27:03.769Z,100883.88
2023-02-22T14:29:32.473Z,100873.47
2023-02-22T14:32:11.095Z,100879.50
2023-02-22T14:35:00.475Z,100880.47
2023-02-22T14:37:34.156Z,100877.81
2023-02-22T14:40:22.383Z,100883.25
2023-02-22T14:43:02.141Z,100878.91
2023-02-22T14:45:34.910Z,100883.25
2023-02-22T14:48:43.010Z,100871.06
2023-02-22T14:51:26.444Z,100877.81
2023-02-22T14:54:21.717Z,100877.22
2023-02-22T14:57:15.051Z,100882.66
2023-02-22T15:00:20.481Z,100870.56
2023-02-22T15:02:52.714Z,100870.56
2023-02-22T15:05:22.106Z,100874.94
2023-02-22T15:07:55.678Z,100875.88
2023-02-22T15:10:30.396Z,100874.22
2023-02-22T15:13:11.359Z,100864.59
2023-02-22T15:15:48.236Z,100870.81
2023-02-22T15:18:46.423Z,100859.66
2023-02-22T15:21:24.838Z,100870.81
2023-02-22T15:24:02.026Z,100868.25
2023-02-22T15:26:52.017Z,100864.03
2023-02-22T15:29:41.110Z,100857.84
2023-02-22T15:32:34.753Z,100855.31
2023-02-22T15:35:27.810Z,100864.03
2023-02-22T15:38:02.638Z,100864.03
2023-02-22T15:40:33.526Z,100859.56
2023-02-22T15:43:05.113Z,100854.25
2023-02-22T15:45:33.652Z,100849.03
2023-02-22T15:48:03.512Z,100846.38
2023-02-22T15:50:34.150Z,100848.31
2023-02-22T15:53:06.965Z,100847.47
2023-02-22T15:55:40.414Z,100839.63
2023-02-22T15:58:31.645Z,100840.56
2023-02-22T16:01:06.854Z,100834.31
2023-02-22T16:03:45.765Z,100840.56
2023-02-22T16:06:39.767Z,100835.03
2023-02-22T16:09:26.359Z,100832.72
2023-02-22T16:12:20.822Z,100835.19
2023-02-22T16:14:52.519Z,100827.81
2023-02-22T16:17:41.149Z,100832.28
2023-02-22T16:20:12.168Z,100830.22
2023-02-22T16:22:41.672Z,100826.72
2023-02-22T16:25:19.592Z,100836.34
2023-02-22T16:27:58.185Z,100842.38
2023-02-22T16:30:36.798Z,100839.56
2023-02-22T16:33:16.743Z,100842.56
2023-02-22T16:35:52.408Z,100836.34
2023-02-22T16:38:21.374Z,100837.31
2023-02-22T16:40:54.118Z,100840.44
2023-02-22T16:43:33.180Z,100838.97
2023-02-22T16:46:02.952Z,100841.59
2023-02-22T16:48:32.956Z,100840.47
2023-02-22T16:51:15.281Z,100839.56
2023-02-22T16:53:45.036Z,100830.38
2023-02-22T16:56:16.742Z,100835.94
2023-02-22T16:58:45.617Z,100838.97
2023-02-22T17:01:14.650Z,100839.13
2023-02-22T17:03:43.414Z,100845.19
2023-02-22T17:06:12.786Z,100851.34
2023-02-22T17:08:41.778Z,100838.91
2023-02-22T17:11:12.622Z,100847.91
2023-02-22T17:13:59.990Z,100848.16
2023-02-22T17:16:29.131Z,100853.75
2023-02-22T17:18:57.811Z,100860.50
2023-02-22T17:21:27.069Z,100858.78
2023-02-22T17:23:55.662Z,100860.75
2023-02-22T17:26:26.675Z,100868.38
2023-02-22T17:28:55.320Z,100866.78
2023-02-22T17:31:26.737Z,100859.06
2023-02-22T17:33:56.871Z,100872.22
2023-02-22T17:36:25.710Z,100876.13
2023-02-22T17:38:54.616Z,100877.13
2023-02-22T17:41:23.677Z,100876.41
2023-02-22T17:43:54.437Z,100878.06
2023-02-22T17:46:25.396Z,100881.44
2023-02-22T17:48:56.722Z,100880.50
2023-02-22T17:51:26.336Z,100876.59
2023-02-22T17:53:54.977Z,100888.63
2023-02-22T17:56:23.985Z,100878.81
2023-02-22T17:58:54.634Z,100871.00
2023-02-22T18:01:32.104Z,100881.47
2023-02-22T18:04:02.004Z,100877.69
2023-02-22T18:06:32.928Z,100880.38
2023-02-22T18:09:01.712Z,100882.38
2023-02-22T18:11:32.810Z,100878.75
2023-02-22T18:14:01.280Z,100886.22
2023-02-22T18:16:30.218Z,100877.75
2023-02-22T18:19:01.506Z,100876.09
2023-02-22T18:21:30.465Z,100875.91
2023-02-22T18:23:58.945Z,100867.03
2023-02-22T18:26:28.210Z,100873.47
2023-02-22T18:28:57.064Z,100876.69
2023-02-22T18:31:25.933Z,100869.22
2023-02-22T18:33:54.529Z,100876.75
2023-02-22T18:36:24.972Z,100872.38
2023-02-22T18:38:54.591Z,100871.66
2023-02-22T18:41:27.376Z,100866.72
2023-02-22T18:43:58.162Z,100862.88
2023-02-22T18:46:27.958Z,100868.09
2023-02-22T18:48:57.123Z,100861.34
2023-02-22T18:51:26.561Z,100867.78
2023-02-22T18:54:00.846Z,100869.44
2023-02-22T18:56:30.343Z,100866.19
2023-02-22T18:59:01.618Z,100862.09
2023-02-22T19:01:31.602Z,100867.44
2023-02-22T19:04:01.294Z,100865.63
2023-02-22T19:06:30.223Z,100860.06
2023-02-22T19:09:01.530Z,100868.06
2023-02-22T19:11:30.499Z,100874.38
2023-02-22T19:13:59.120Z,100871.97
2023-02-22T19:16:28.344Z,100868.47
2023-02-22T19:18:57.809Z,100869.81
2023-02-22T19:21:29.123Z,100873.47
2023-02-22T19:24:02.417Z,100871.88
2023-02-22T19:26:32.213Z,100881.81
2023-02-22T19:29:05.136Z,100880.13
2023-02-22T19:31:34.339Z,100886.53
2023-02-22T19:34:09.058Z,100884.00
2023-02-22T19:36:39.894Z,100886.16
2023-02-22T19:39:08.972Z,100874.09
2023-02-22T19:41:38.475Z,100887.00
2023-02-22T19:44:07.259Z,100882.41
2023-02-22T19:46:36.794Z,100873.34
2023-02-22T19:49:05.842Z,100881.09
2023-02-22T19:51:34.774Z,100878.19
2023-02-22T19:54:06.759Z,100874.28
2023-02-22T19:56:35.775Z,100882.84
2023-02-22T19:59:09.675Z,100877.84
2023-02-22T20:01:38.628Z,100884.66
2023-02-22T20:04:09.632Z,100882.13
2023-02-22T20:06:41.873Z,100889.03
2023-02-22T20:09:18.203Z,100883.03
2023-02-22T20:11:47.962Z,100881.34
2023-02-22T20:14:23.628Z,100894.78
2023-02-22T20:16:53.742Z,100881.03
2023-02-22T20:19:26.924Z,100888.88
2023-02-22T20:21:56.484Z,100894.19
2023-02-22T20:24:25.700Z,100891.81
2023-02-22T20:26:58.390Z,100891.69
2023-02-22T20:29:31.570Z,100888.44
2023-02-22T20:32:02.208Z,100893.28
2023-02-22T20:34:33.315Z,100888.22
2023-02-22T20:37:03.865Z,100890.75
2023-02-22T20:39:36.260Z,100882.88
2023-02-22T20:42:08.104Z,100889.06
2023-02-22T20:44:38.374Z,100880.97
2023-02-22T20:47:08.685Z,100895.00
2023-02-22T20:49:38.706Z,100890.50
2023-02-22T20:52:09.274Z,100892.47
2023-02-22T20:54:39.389Z,100886.28
2023-02-22T20:57:09.356Z,100888.34
2023-02-22T20:59:40.935Z,100882.56
2023-02-22T21:02:11.809Z,100890.16
2023-02-22T21:04:41.736Z,100891.16
2023-02-22T21:07:12.325Z,100879.91
2023-02-22T21:09:42.400Z,100878.06
2023-02-22T21:12:14.322Z,100878.94
2023-02-22T21:14:44.624Z,100875.56
2023-02-22T21:17:13.572Z,100873.16
2023-02-22T21:19:42.346Z,100872.44
2023-02-22T21:22:11.118Z,100870.88
2023-02-22T21:24:39.619Z,100866.03
2023-02-22T21:27:08.916Z,100870.66
2023-02-22T21:29:37.617Z,100860.00
2023-02-22T21:32:08.857Z,100867.84
2023-02-22T21:34:37.787Z,100872.22
2023-02-22T21:37:08.460Z,100869.81
2023-02-22T21:39:36.896Z,100868.13
2023-02-22T21:42:07.414Z,100865.00
2023-02-22T21:44:35.909Z,100868.63
2023-02-22T21:47:04.874Z,100859.91
2023-02-22T21:49:33.448Z,100861.81
2023-02-22T21:52:02.596Z,100861.00
2023-02-22T21:54:31.122Z,100859.44
2023-02-22T21:57:00.168Z,100860.50
2023-02-22T21:59:28.689Z,100855.19
2023-02-22T22:01:57.445Z,100855.34
2023-02-22T22:04:31.154Z,100845.94
2023-02-22T22:07:01.475Z,100850.13
2023-02-22T22:09:33.475Z,100842.66
2023-02-22T22:12:05.549Z,100850.53
2023-02-22T22:14:34.732Z,100843.50
2023-02-22T22:17:05.865Z,100851.38
2023-02-22T22:19:42.101Z,100840.25
2023-02-22T22:22:10.867Z,100850.75
2023-02-22T22:24:41.854Z,100854.25
2023-02-22T22:27:13.027Z,100855.25
2023-02-22T22:29:41.542Z,100842.91
2023-02-22T22:32:10.804Z,100842.91
2023-02-22T22:34:39.469Z,100847.91
2023-02-22T22:37:09.222Z,100846.06
2023-02-22T22:39:38.972Z,100846.31
2023-02-22T22:42:09.479Z,100842.09
2023-02-22T22:44:42.521Z,100848.41
2023-02-22T22:47:14.555Z,100839.09
2023-02-22T22:49:43.074Z,100839.81
2023-02-22T22:52:16.631Z,100848.75
2023-02-22T22:54:45.043Z,100839.44
2023-02-22T22:57:14.963Z,100841.28
2023-02-22T22:59:43.415Z,100842.97
2023-02-22T23:02:12.198Z,100841.28
2023-02-22T23:04:40.669Z,100841.28
2023-02-22T23:07:09.658Z,100833.09
2023-02-22T23:09:39.939Z,100843.34
2023-02-22T23:12:09.238Z,100838.28
2023-02-22T23:14:44.219Z,100838.13
2023-02-22T23:17:31.629Z,100835.63
2023-02-22T23:20:00.195Z,100839.25
2023-02-22T23:22:28.933Z,100837.56
2023-02-22T23:25:00.054Z,100840.22
2023-02-22T23:27:28.921Z,100833.47
2023-02-22T23:29:57.384Z,100835.97
2023-02-22T23:32:29.504Z,100828.16
2023-02-22T23:34:57.844Z,100829.94
2023-02-22T23:37:26.542Z,100818.56
2023-02-22T23:39:54.865Z,100825.72
2023-02-22T23:42:23.531Z,100824.88
2023-02-22T23:44:53.555Z,100823.19
2023-02-22T23:47:22.318Z,100820.63
2023-02-22T23:49:50.757Z,100818.84
2023-02-22T23:52:24.626Z,100820.78
2023-02-22T23:54:54.252Z,100814.97
2023-02-22T23:57:24.689Z,100816.41
2023-02-22T23:59:53.253Z,100811.50
